sensor_id;sensor_type;location;lat;lon;timestamp;pressure;altitude;pressure_sealevel;temperature;humidity
65880;BME280;52661;51.364;6.054;2022-09-09T00:00:14;100549.44;;;15.61;97.06
65880;BME280;52661;51.364;6.054;2022-09-09T00:02:45;100544.06;;;15.58;96.97
65880;BME280;52661;51.364;6.054;2022-09-09T00:05:32;100548.75;;;15.73;96.54
65880;BME280;52661;51.364;6.054;2022-09-09T00:08:02;100539.44;;;15.55;96.98
65880;BME280;52661;51.364;6.054;2022-09-09T00:10:37;100531.91;;;15.59;96.78
65880;BME280;52661;51.364;6.054;2022-09-09T00:13:23;100537.72;;;15.61;96.44
65880;BME280;52661;51.364;6.054;2022-09-09T00:15:57;100532.41;;;15.54;96.28
65880;BME280;52661;51.364;6.054;2022-09-09T00:23:30;100533.88;;;15.58;96.41
65880;BME280;52661;51.364;6.054;2022-09-09T00:26:08;100527.56;;;15.61;95.95
65880;BME280;52661;51.364;6.054;2022-09-09T00:28:39;100527.84;;;15.47;96.03
65880;BME280;52661;51.364;6.054;2022-09-09T00:31:14;100531.56;;;15.57;96.20
65880;BME280;52661;51.364;6.054;2022-09-09T00:33:42;100522.59;;;15.56;95.96
65880;BME280;52661;51.364;6.054;2022-09-09T00:36:16;100530.75;;;15.40;96.44
65880;BME280;52661;51.364;6.054;2022-09-09T00:38:49;100536.22;;;15.40;96.63
65880;BME280;52661;51.364;6.054;2022-09-09T00:43:53;100519.66;;;15.47;96.12
65880;BME280;52661;51.364;6.054;2022-09-09T00:55:13;100524.22;;;15.18;97.88
65880;BME280;52661;51.364;6.054;2022-09-09T00:57:41;100524.22;;;15.18;97.51
65880;BME280;52661;51.364;6.054;2022-09-09T01:05:45;100515.09;;;15.05;98.05
65880;BME280;52661;51.364;6.054;2022-09-09T01:11:01;100517.72;;;15.12;97.96
65880;BME280;52661;51.364;6.054;2022-09-09T01:13:33;100517.66;;;14.96;98.67
65880;BME280;52661;51.364;6.054;2022-09-09T01:16:01;100515.41;;;15.10;98.56
65880;BME280;52661;51.364;6.054;2022-09-09T01:18:38;100515.09;;;15.05;98.53
65880;BME280;52661;51.364;6.054;2022-09-09T01:26:45;100521.41;;;15.21;97.16
65880;BME280;52661;51.364;6.054;2022-09-09T01:29:16;100515.50;;;15.23;96.76
65880;BME280;52661;51.364;6.054;2022-09-09T01:31:56;100516.72;;;15.22;96.82
65880;BME280;52661;51.364;6.054;2022-09-09T01:34:24;100522.03;;;15.29;96.52
65880;BME280;52661;51.364;6.054;2022-09-09T01:37:00;100521.47;;;15.18;96.81
65880;BME280;52661;51.364;6.054;2022-09-09T01:39:27;100528.06;;;15.20;97.04
65880;BME280;52661;51.364;6.054;2022-09-09T01:41:54;100523.44;;;15.17;97.05
65880;BME280;52661;51.364;6.054;2022-09-09T01:44:20;100528.06;;;15.20;96.85
65880;BME280;52661;51.364;6.054;2022-09-09T01:46:46;100519.09;;;15.20;96.67
65880;BME280;52661;51.364;6.054;2022-09-09T01:49:12;100519.84;;;15.20;97.09
65880;BME280;52661;51.364;6.054;2022-09-09T01:51:38;100516.88;;;15.15;97.15
65880;BME280;52661;51.364;6.054;2022-09-09T01:54:06;100517.56;;;15.19;96.89
65880;BME280;52661;51.364;6.054;2022-09-09T02:06:53;100502.06;;;15.12;97.52
65880;BME280;52661;51.364;6.054;2022-09-09T02:09:23;100502.75;;;15.16;97.89
65880;BME280;52661;51.364;6.054;2022-09-09T02:11:51;100499.00;;;15.10;98.28
65880;BME280;52661;51.364;6.054;2022-09-09T02:14:28;100491.03;;;15.00;99.05
65880;BME280;52661;51.364;6.054;2022-09-09T02:17:17;100494.53;;;15.00;99.10
65880;BME280;52661;51.364;6.054;2022-09-09T02:19:47;100492.75;;;15.10;98.75
65880;BME280;52661;51.364;6.054;2022-09-09T02:22:20;100495.72;;;14.99;99.41
65880;BME280;52661;51.364;6.054;2022-09-09T02:24:47;100502.88;;;14.93;99.44
65880;BME280;52661;51.364;6.054;2022-09-09T02:27:15;100490.66;;;14.98;100.00
65880;BME280;52661;51.364;6.054;2022-09-09T02:29:43;100493.84;;;14.96;99.70
65880;BME280;52661;51.364;6.054;2022-09-09T02:32:14;100490.16;;;14.87;100.00
65880;BME280;52661;51.364;6.054;2022-09-09T02:34:45;100492.38;;;14.92;100.00
65880;BME280;52661;51.364;6.054;2022-09-09T02:37:15;100488.09;;;14.91;100.00
65880;BME280;52661;51.364;6.054;2022-09-09T02:39:43;100487.59;;;14.96;100.00
65880;BME280;52661;51.364;6.054;2022-09-09T02:42:09;100489.63;;;14.92;100.00
65880;BME280;52661;51.364;6.054;2022-09-09T02:44:35;100482.13;;;14.96;100.00
65880;BME280;52661;51.364;6.054;2022-09-09T02:52:06;100476.50;;;14.87;100.00
65880;BME280;52661;51.364;6.054;2022-09-09T02:54:33;100481.94;;;14.87;100.00
65880;BME280;52661;51.364;6.054;2022-09-09T02:59:34;100485.09;;;14.85;100.00
65880;BME280;52661;51.364;6.054;2022-09-09T03:01:59;100485.44;;;14.87;100.00
65880;BME280;52661;51.364;6.054;2022-09-09T03:04:25;100494.56;;;14.81;100.00
65880;BME280;52661;51.364;6.054;2022-09-09T03:06:50;100499.16;;;14.84;100.00
65880;BME280;52661;51.364;6.054;2022-09-09T03:09:16;100478.38;;;14.90;100.00
65880;BME280;52661;51.364;6.054;2022-09-09T03:11:41;100482.78;;;14.84;100.00
65880;BME280;52661;51.364;6.054;2022-09-09T03:14:07;100478.38;;;14.90;100.00
65880;BME280;52661;51.364;6.054;2022-09-09T03:16:32;100480.25;;;14.93;100.00
65880;BME280;52661;51.364;6.054;2022-09-09T03:18:59;100487.59;;;14.96;100.00
65880;BME280;52661;51.364;6.054;2022-09-09T03:21:25;100488.00;;;14.94;100.00
65880;BME280;52661;51.364;6.054;2022-09-09T03:23:50;100484.16;;;14.92;100.00
65880;BME280;52661;51.364;6.054;2022-09-09T03:26:15;100489.22;;;14.93;100.00
65880;BME280;52661;51.364;6.054;2022-09-09T03:28:41;100484.38;;;15.01;100.00
65880;BME280;52661;51.364;6.054;2022-09-09T03:31:07;100488.84;;;14.91;100.00
65880;BME280;52661;51.364;6.054;2022-09-09T03:33:36;100489.22;;;14.93;100.00
65880;BME280;52661;51.364;6.054;2022-09-09T03:36:02;100482.47;;;14.98;100.00
65880;BME280;52661;51.364;6.054;2022-09-09T03:38:27;100490.25;;;14.99;100.00
65880;BME280;52661;51.364;6.054;2022-09-09T03:40:55;100486.41;;;14.97;100.00
65880;BME280;52661;51.364;6.054;2022-09-09T03:43:24;100490.00;;;14.94;100.00
65880;BME280;52661;51.364;6.054;2022-09-09T03:45:50;100487.69;;;14.92;100.00
65880;BME280;52661;51.364;6.054;2022-09-09T03:48:16;100490.25;;;14.99;100.00
65880;BME280;52661;51.364;6.054;2022-09-09T03:50:53;100498.38;;;15.03;100.00
65880;BME280;52661;51.364;6.054;2022-09-09T03:53:21;100503.34;;;15.08;100.00
65880;BME280;52661;51.364;6.054;2022-09-09T03:55:51;100496.66;;;14.93;100.00
65880;BME280;52661;51.364;6.054;2022-09-09T03:58:21;100507.56;;;14.93;100.00
65880;BME280;52661;51.364;6.054;2022-09-09T04:01:02;100499.72;;;14.95;100.00
65880;BME280;52661;51.364;6.054;2022-09-09T04:03:28;100499.72;;;14.95;100.00
65880;BME280;52661;51.364;6.054;2022-09-09T04:05:56;100498.47;;;14.99;100.00
65880;BME280;52661;51.364;6.054;2022-09-09T04:08:22;100498.59;;;15.12;100.00
65880;BME280;52661;51.364;6.054;2022-09-09T04:10:50;100498.72;;;15.05;100.00
65880;BME280;52661;51.364;6.054;2022-09-09T04:13:17;100495.56;;;15.06;100.00
65880;BME280;52661;51.364;6.054;2022-09-09T04:15:44;100494.78;;;15.06;100.00
65880;BME280;52661;51.364;6.054;2022-09-09T04:18:10;100492.50;;;15.04;100.00
65880;BME280;52661;51.364;6.054;2022-09-09T04:20:37;100492.13;;;15.02;100.00
65880;BME280;52661;51.364;6.054;2022-09-09T04:23:03;100492.91;;;15.03;100.00
65880;BME280;52661;51.364;6.054;2022-09-09T04:25:28;100488.75;;;15.14;100.00
65880;BME280;52661;51.364;6.054;2022-09-09T04:27:55;100484.41;;;15.17;100.00
65880;BME280;52661;51.364;6.054;2022-09-09T04:30:20;100480.03;;;15.19;100.00
65880;BME280;52661;51.364;6.054;2022-09-09T04:32:46;100481.56;;;15.20;100.00
65880;BME280;52661;51.364;6.054;2022-09-09T04:35:11;100480.03;;;15.19;100.00
65880;BME280;52661;51.364;6.054;2022-09-09T04:37:37;100482.44;;;15.17;100.00
65880;BME280;52661;51.364;6.054;2022-09-09T04:40:02;100487.91;;;15.17;100.00
65880;BME280;52661;51.364;6.054;2022-09-09T04:42:28;100484.06;;;15.15;100.00
65880;BME280;52661;51.364;6.054;2022-09-09T04:44:53;100479.38;;;15.15;100.00
65880;BME280;52661;51.364;6.054;2022-09-09T04:47:19;100478.59;;;15.15;100.00
65880;BME280;52661;51.364;6.054;2022-09-09T04:49:45;100474.91;;;15.21;100.00
65880;BME280;52661;51.364;6.054;2022-09-09T04:52:10;100475.34;;;15.20;100.00
65880;BME280;52661;51.364;6.054;2022-09-09T04:54:35;100477.22;;;15.23;100.00
65880;BME280;52661;51.364;6.054;2022-09-09T04:57:01;100473.22;;;15.27;100.00
65880;BME280;52661;51.364;6.054;2022-09-09T04:59:27;100477.66;;;15.21;100.00
65880;BME280;52661;51.364;6.054;2022-09-09T05:01:52;100466.63;;;15.25;100.00
65880;BME280;52661;51.364;6.054;2022-09-09T05:04:19;100469.47;;;15.21;100.00
65880;BME280;52661;51.364;6.054;2022-09-09T05:06:44;100473.22;;;15.27;100.00
65880;BME280;52661;51.364;6.054;2022-09-09T05:09:10;100468.19;;;15.26;100.00
65880;BME280;52661;51.364;6.054;2022-09-09T05:11:36;100472.53;;;15.23;100.00
65880;BME280;52661;51.364;6.054;2022-09-09T05:14:02;100465.09;;;15.24;100.00
65880;BME280;52661;51.364;6.054;2022-09-09T05:16:28;100465.78;;;15.28;100.00
65880;BME280;52661;51.364;6.054;2022-09-09T05:18:53;100469.38;;;15.25;100.00
65880;BME280;52661;51.364;6.054;2022-09-09T05:21:20;100464.84;;;15.18;100.00
65880;BME280;52661;51.364;6.054;2022-09-09T05:23:46;100468.00;;;15.17;100.00
65880;BME280;52661;51.364;6.054;2022-09-09T05:26:14;100475.69;;;15.22;100.00
65880;BME280;52661;51.364;6.054;2022-09-09T05:28:40;100470.22;;;15.22;100.00
65880;BME280;52661;51.364;6.054;2022-09-09T05:31:08;100472.97;;;15.22;100.00
65880;BME280;52661;51.364;6.054;2022-09-09T05:33:35;100468.50;;;15.28;100.00
65880;BME280;52661;51.364;6.054;2022-09-09T05:36:03;100468.75;;;15.17;100.00
65880;BME280;52661;51.364;6.054;2022-09-09T05:38:30;100467.06;;;15.23;100.00
65880;BME280;52661;51.364;6.054;2022-09-09T05:40:56;100476.81;;;15.24;100.00
65880;BME280;52661;51.364;6.054;2022-09-09T05:43:22;100470.91;;;15.26;100.00
65880;BME280;52661;51.364;6.054;2022-09-09T05:45:58;100470.91;;;15.26;100.00
65880;BME280;52661;51.364;6.054;2022-09-09T05:48:27;100472.09;;;15.25;100.00
65880;BME280;52661;51.364;6.054;2022-09-09T05:50:54;100478.34;;;15.25;100.00
65880;BME280;52661;51.364;6.054;2022-09-09T05:53:19;100485.63;;;15.32;100.00
65880;BME280;52661;51.364;6.054;2022-09-09T05:55:45;100479.56;;;15.41;100.00
65880;BME280;52661;51.364;6.054;2022-09-09T05:58:11;100480.75;;;15.40;100.00
65880;BME280;52661;51.364;6.054;2022-09-09T06:00:36;100487.56;;;15.32;100.00
65880;BME280;52661;51.364;6.054;2022-09-09T06:03:03;100483.13;;;15.38;100.00
65880;BME280;52661;51.364;6.054;2022-09-09T06:05:29;100488.50;;;15.41;100.00
65880;BME280;52661;51.364;6.054;2022-09-09T06:07:54;100483.31;;;15.47;100.00
65880;BME280;52661;51.364;6.054;2022-09-09T06:10:21;100489.16;;;15.49;100.00
65880;BME280;52661;51.364;6.054;2022-09-09T06:12:46;100493.81;;;15.48;100.00
65880;BME280;52661;51.364;6.054;2022-09-09T06:15:11;100495.31;;;15.53;100.00
65880;BME280;52661;51.364;6.054;2022-09-09T06:17:37;100495.41;;;15.49;100.00
65880;BME280;52661;51.364;6.054;2022-09-09T06:20:04;100495.66;;;15.55;100.00
65880;BME280;52661;51.364;6.054;2022-09-09T06:22:30;100499.75;;;15.63;100.00
65880;BME280;52661;51.364;6.054;2022-09-09T06:24:56;100501.47;;;15.57;100.00
65880;BME280;52661;51.364;6.054;2022-09-09T06:27:21;100498.72;;;15.57;100.00
65880;BME280;52661;51.364;6.054;2022-09-09T06:29:46;100493.53;;;15.62;100.00
65880;BME280;52661;51.364;6.054;2022-09-09T06:32:13;100492.69;;;15.65;100.00
65880;BME280;52661;51.364;6.054;2022-09-09T06:34:38;100497.97;;;15.72;100.00
65880;BME280;52661;51.364;6.054;2022-09-09T06:37:03;100489.91;;;15.82;100.00
65880;BME280;52661;51.364;6.054;2022-09-09T06:39:31;100486.56;;;15.90;100.00
65880;BME280;52661;51.364;6.054;2022-09-09T06:41:56;100478.78;;;15.89;100.00
65880;BME280;52661;51.364;6.054;2022-09-09T06:44:23;100492.81;;;15.91;100.00
65880;BME280;52661;51.364;6.054;2022-09-09T06:46:52;100497.09;;;15.92;100.00
65880;BME280;52661;51.364;6.054;2022-09-09T06:49:17;100488.63;;;15.86;100.00
65880;BME280;52661;51.364;6.054;2022-09-09T06:51:42;100488.31;;;15.84;100.00
65880;BME280;52661;51.364;6.054;2022-09-09T06:54:09;100494.88;;;15.87;100.00
65880;BME280;52661;51.364;6.054;2022-09-09T06:56:37;100496.06;;;15.86;100.00
65880;BME280;52661;51.364;6.054;2022-09-09T06:59:06;100491.28;;;15.90;100.00
65880;BME280;52661;51.364;6.054;2022-09-09T07:01:35;100490.94;;;15.88;100.00
65880;BME280;52661;51.364;6.054;2022-09-09T07:04:02;100491.59;;;15.92;100.00
65880;BME280;52661;51.364;6.054;2022-09-09T07:06:34;100490.00;;;15.94;100.00
65880;BME280;52661;51.364;6.054;2022-09-09T07:09:03;100496.94;;;16.28;100.00
65880;BME280;52661;51.364;6.054;2022-09-09T07:11:31;100493.63;;;16.78;97.99
65880;BME280;52661;51.364;6.054;2022-09-09T07:13:58;100488.56;;;16.76;96.12
65880;BME280;52661;51.364;6.054;2022-09-09T07:16:24;100492.25;;;17.11;95.68
65880;BME280;52661;51.364;6.054;2022-09-09T07:18:50;100492.44;;;17.29;92.19
65880;BME280;52661;51.364;6.054;2022-09-09T07:21:17;100496.97;;;17.36;92.21
65880;BME280;52661;51.364;6.054;2022-09-09T07:23:43;100492.00;;;17.31;92.14
65880;BME280;52661;51.364;6.054;2022-09-09T07:26:13;100496.94;;;17.48;91.44
65880;BME280;52661;51.364;6.054;2022-09-09T07:28:40;100493.34;;;17.64;90.89
65880;BME280;52661;51.364;6.054;2022-09-09T07:31:08;100496.84;;;17.64;90.87
65880;BME280;52661;51.364;6.054;2022-09-09T07:33:38;100494.41;;;17.54;90.77
65880;BME280;52661;51.364;6.054;2022-09-09T07:36:07;100501.69;;;17.60;91.14
65880;BME280;52661;51.364;6.054;2022-09-09T07:38:46;100490.34;;;17.58;90.57
65880;BME280;52661;51.364;6.054;2022-09-09T07:41:23;100490.91;;;17.66;90.24
65880;BME280;52661;51.364;6.054;2022-09-09T07:43:50;100489.69;;;17.54;89.58
65880;BME280;52661;51.364;6.054;2022-09-09T07:46:18;100506.16;;;17.80;88.89
65880;BME280;52661;51.364;6.054;2022-09-09T07:48:50;100490.91;;;17.53;87.92
65880;BME280;52661;51.364;6.054;2022-09-09T07:51:19;100496.72;;;17.55;88.59
65880;BME280;52661;51.364;6.054;2022-09-09T07:53:50;100497.94;;;17.54;88.66
65880;BME280;52661;51.364;6.054;2022-09-09T07:56:17;100493.84;;;17.84;87.96
65880;BME280;52661;51.364;6.054;2022-09-09T07:58:45;100498.78;;;17.89;88.44
65880;BME280;52661;51.364;6.054;2022-09-09T08:01:23;100508.63;;;17.99;87.28
65880;BME280;52661;51.364;6.054;2022-09-09T08:03:54;100510.69;;;18.08;87.02
65880;BME280;52661;51.364;6.054;2022-09-09T08:06:20;100513.97;;;17.68;87.65
65880;BME280;52661;51.364;6.054;2022-09-09T08:08:50;100519.34;;;17.72;87.47
65880;BME280;52661;51.364;6.054;2022-09-09T08:11:15;100518.66;;;17.55;87.01
65880;BME280;52661;51.364;6.054;2022-09-09T08:13:42;100525.91;;;17.37;86.99
65880;BME280;52661;51.364;6.054;2022-09-09T08:16:16;100530.22;;;17.25;87.61
65880;BME280;52661;51.364;6.054;2022-09-09T08:18:42;100522.19;;;17.31;89.01
65880;BME280;52661;51.364;6.054;2022-09-09T08:21:13;100527.78;;;17.14;88.96
65880;BME280;52661;51.364;6.054;2022-09-09T08:23:40;100530.63;;;17.11;88.68
65880;BME280;52661;51.364;6.054;2022-09-09T08:26:14;100530.72;;;17.07;88.66
65880;BME280;52661;51.364;6.054;2022-09-09T08:28:41;100530.06;;;17.03;88.47
65880;BME280;52661;51.364;6.054;2022-09-09T08:31:15;100527.75;;;17.02;87.51
65880;BME280;52661;51.364;6.054;2022-09-09T08:33:42;100530.19;;;17.12;88.19
65880;BME280;52661;51.364;6.054;2022-09-09T08:36:13;100532.94;;;17.12;86.90
65880;BME280;52661;51.364;6.054;2022-09-09T08:38:40;100529.84;;;17.23;87.53
65880;BME280;52661;51.364;6.054;2022-09-09T08:53:37;100534.94;;;17.75;85.46
65880;BME280;52661;51.364;6.054;2022-09-09T08:56:00;100536.25;;;17.70;84.22
65880;BME280;52661;51.364;6.054;2022-09-09T08:58:31;100532.41;;;17.68;83.87
65880;BME280;52661;51.364;6.054;2022-09-09T09:04:11;100537.31;;;17.48;82.41
65880;BME280;52661;51.364;6.054;2022-09-09T09:07:09;100541.16;;;17.38;82.70
65880;BME280;52661;51.364;6.054;2022-09-09T09:12:28;100550.91;;;17.26;82.52
65880;BME280;52661;51.364;6.054;2022-09-09T09:14:55;100550.81;;;17.30;82.70
65880;BME280;52661;51.364;6.054;2022-09-09T09:17:25;100554.34;;;17.30;83.23
65880;BME280;52661;51.364;6.054;2022-09-09T09:19:52;100547.13;;;17.36;83.88
65880;BME280;52661;51.364;6.054;2022-09-09T09:24:52;100540.94;;;17.45;82.86
65880;BME280;52661;51.364;6.054;2022-09-09T09:27:30;100541.28;;;17.47;83.11
65880;BME280;52661;51.364;6.054;2022-09-09T09:29:58;100550.59;;;17.37;82.61
65880;BME280;52661;51.364;6.054;2022-09-09T09:32:26;100559.38;;;17.32;82.57
65880;BME280;52661;51.364;6.054;2022-09-09T09:34:57;100556.19;;;17.33;82.78
65880;BME280;52661;51.364;6.054;2022-09-09T09:37:29;100557.53;;;17.29;82.41
65880;BME280;52661;51.364;6.054;2022-09-09T09:39:55;100554.44;;;17.27;82.57
65880;BME280;52661;51.364;6.054;2022-09-09T09:42:20;100550.81;;;17.30;82.85
65880;BME280;52661;51.364;6.054;2022-09-09T09:44:46;100558.38;;;17.26;82.73
65880;BME280;52661;51.364;6.054;2022-09-09T09:47:19;100549.50;;;17.21;82.98
65880;BME280;52661;51.364;6.054;2022-09-09T09:49:59;100555.88;;;17.44;84.93
65880;BME280;52661;51.364;6.054;2022-09-09T09:52:26;100552.16;;;17.63;81.69
65880;BME280;52661;51.364;6.054;2022-09-09T09:54:54;100554.69;;;17.70;80.28
65880;BME280;52661;51.364;6.054;2022-09-09T09:57:29;100562.19;;;17.57;80.42
65880;BME280;52661;51.364;6.054;2022-09-09T10:02:39;100555.22;;;17.52;82.56
65880;BME280;52661;51.364;6.054;2022-09-09T10:05:16;100568.84;;;17.56;82.96
65880;BME280;52661;51.364;6.054;2022-09-09T10:07:42;100563.34;;;17.56;83.43
65880;BME280;52661;51.364;6.054;2022-09-09T10:10:26;100558.50;;;17.47;81.36
65880;BME280;52661;51.364;6.054;2022-09-09T10:29:10;100560.84;;;17.36;83.99
65880;BME280;52661;51.364;6.054;2022-09-09T10:37:03;100556.53;;;17.48;82.48
65880;BME280;52661;51.364;6.054;2022-09-09T10:39:38;100545.78;;;17.53;82.11
65880;BME280;52661;51.364;6.054;2022-09-09T10:42:15;100546.03;;;17.59;81.68
65880;BME280;52661;51.364;6.054;2022-09-09T10:45:04;100558.84;;;17.49;84.25
65880;BME280;52661;51.364;6.054;2022-09-09T10:48:10;100569.34;;;17.13;90.16
65880;BME280;52661;51.364;6.054;2022-09-09T10:50:52;100569.19;;;16.91;93.85
65880;BME280;52661;51.364;6.054;2022-09-09T10:56:20;100553.03;;;16.81;97.12
65880;BME280;52661;51.364;6.054;2022-09-09T10:59:09;100557.44;;;16.78;98.07
65880;BME280;52661;51.364;6.054;2022-09-09T11:01:48;100556.09;;;16.83;97.99
65880;BME280;52661;51.364;6.054;2022-09-09T11:04:24;100566.19;;;16.73;98.92
65880;BME280;52661;51.364;6.054;2022-09-09T11:06:54;100560.59;;;16.77;98.80
65880;BME280;52661;51.364;6.054;2022-09-09T11:09:35;100557.66;;;16.84;99.88
65880;BME280;52661;51.364;6.054;2022-09-09T11:12:02;100564.28;;;16.99;99.59
65880;BME280;52661;51.364;6.054;2022-09-09T11:14:51;100555.34;;;16.82;99.57
65880;BME280;52661;51.364;6.054;2022-09-09T11:17:22;100561.50;;;16.86;100.00
65880;BME280;52661;51.364;6.054;2022-09-09T11:19:49;100561.63;;;16.95;100.00
65880;BME280;52661;51.364;6.054;2022-09-09T11:22:31;100559.41;;;16.90;100.00
65880;BME280;52661;51.364;6.054;2022-09-09T11:30:17;100572.06;;;16.71;100.00
65880;BME280;52661;51.364;6.054;2022-09-09T11:38:45;100565.78;;;16.58;100.00
65880;BME280;52661;51.364;6.054;2022-09-09T11:41:12;100565.19;;;16.67;100.00
65880;BME280;52661;51.364;6.054;2022-09-09T11:46:06;100580.34;;;16.55;100.00
65880;BME280;52661;51.364;6.054;2022-09-09T11:48:38;100581.91;;;16.40;100.00
65880;BME280;52661;51.364;6.054;2022-09-09T11:53:51;100566.88;;;16.16;100.00
65880;BME280;52661;51.364;6.054;2022-09-09T11:56:32;100566.78;;;16.19;100.00
65880;BME280;52661;51.364;6.054;2022-09-09T11:59:05;100572.59;;;16.38;100.00
65880;BME280;52661;51.364;6.054;2022-09-09T12:01:36;100565.97;;;16.51;100.00
65880;BME280;52661;51.364;6.054;2022-09-09T12:04:26;100565.19;;;16.67;100.00
65880;BME280;52661;51.364;6.054;2022-09-09T12:07:05;100565.06;;;16.99;100.00
65880;BME280;52661;51.364;6.054;2022-09-09T12:09:50;100562.13;;;17.32;100.00
65880;BME280;52661;51.364;6.054;2022-09-09T12:12:29;100561.25;;;17.47;100.00
65880;BME280;52661;51.364;6.054;2022-09-09T12:15:17;100567.28;;;17.55;100.00
65880;BME280;52661;51.364;6.054;2022-09-09T12:17:48;100569.06;;;17.49;100.00
65880;BME280;52661;51.364;6.054;2022-09-09T12:20:26;100564.44;;;17.46;100.00
65880;BME280;52661;51.364;6.054;2022-09-09T12:28:41;100558.75;;;17.53;100.00
65880;BME280;52661;51.364;6.054;2022-09-09T12:33:53;100553.47;;;17.58;100.00
65880;BME280;52661;51.364;6.054;2022-09-09T12:36:22;100553.81;;;17.60;100.00
65880;BME280;52661;51.364;6.054;2022-09-09T12:38:49;100552.91;;;17.76;100.00
65880;BME280;52661;51.364;6.054;2022-09-09T12:41:24;100550.94;;;17.89;99.61
65880;BME280;52661;51.364;6.054;2022-09-09T12:43:50;100543.72;;;17.70;96.95
65880;BME280;52661;51.364;6.054;2022-09-09T12:46:37;100546.19;;;18.02;98.29
65880;BME280;52661;51.364;6.054;2022-09-09T12:49:04;100537.16;;;18.14;95.75
65880;BME280;52661;51.364;6.054;2022-09-09T12:51:31;100542.28;;;18.25;96.18
65880;BME280;52661;51.364;6.054;2022-09-09T12:53:57;100543.03;;;18.60;95.08
65880;BME280;52661;51.364;6.054;2022-09-09T12:56:26;100538.19;;;18.86;94.81
65880;BME280;52661;51.364;6.054;2022-09-09T12:58:53;100532.28;;;18.96;94.36
65880;BME280;52661;51.364;6.054;2022-09-09T13:01:24;100531.72;;;18.80;93.11
65880;BME280;52661;51.364;6.054;2022-09-09T13:03:49;100532.94;;;18.79;90.07
65880;BME280;52661;51.364;6.054;2022-09-09T13:06:33;100527.25;;;18.73;89.75
65880;BME280;52661;51.364;6.054;2022-09-09T13:09:01;100527.50;;;18.88;90.58
65880;BME280;52661;51.364;6.054;2022-09-09T13:11:36;100520.91;;;18.85;88.76
65880;BME280;52661;51.364;6.054;2022-09-09T13:14:04;100521.50;;;18.58;88.42
65880;BME280;52661;51.364;6.054;2022-09-09T13:16:34;100527.81;;;18.68;88.56
65880;BME280;52661;51.364;6.054;2022-09-09T13:19:06;100521.63;;;18.55;89.18
65880;BME280;52661;51.364;6.054;2022-09-09T13:21:37;100521.34;;;18.40;89.21
65880;BME280;52661;51.364;6.054;2022-09-09T13:24:40;100517.50;;;18.38;88.42
65880;BME280;52661;51.364;6.054;2022-09-09T13:27:28;100515.31;;;18.33;88.93
65880;BME280;52661;51.364;6.054;2022-09-09T13:29:55;100505.22;;;18.30;88.01
65880;BME280;52661;51.364;6.054;2022-09-09T13:32:22;100510.91;;;18.70;86.65
65880;BME280;52661;51.364;6.054;2022-09-09T13:34:58;100504.19;;;19.01;84.07
65880;BME280;52661;51.364;6.054;2022-09-09T13:37:38;100506.19;;;19.41;83.18
65880;BME280;52661;51.364;6.054;2022-09-09T13:40:06;100500.72;;;19.10;82.78
65880;BME280;52661;51.364;6.054;2022-09-09T13:42:34;100497.84;;;18.83;81.97
65880;BME280;52661;51.364;6.054;2022-09-09T13:45:03;100504.25;;;18.58;84.16
65880;BME280;52661;51.364;6.054;2022-09-09T13:47:34;100504.50;;;18.16;85.41
65880;BME280;52661;51.364;6.054;2022-09-09T13:50:30;100511.22;;;18.15;86.93
65880;BME280;52661;51.364;6.054;2022-09-09T13:52:59;100515.66;;;18.00;87.89
65880;BME280;52661;51.364;6.054;2022-09-09T13:55:27;100511.66;;;18.14;88.01
65880;BME280;52661;51.364;6.054;2022-09-09T13:58:00;100512.31;;;18.40;86.33
65880;BME280;52661;51.364;6.054;2022-09-09T14:00:29;100515.91;;;18.93;84.22
65880;BME280;52661;51.364;6.054;2022-09-09T14:02:54;100513.06;;;19.36;83.65
65880;BME280;52661;51.364;6.054;2022-09-09T14:05:22;100519.91;;;19.62;82.53
65880;BME280;52661;51.364;6.054;2022-09-09T14:07:49;100507.63;;;19.54;82.93
65880;BME280;52661;51.364;6.054;2022-09-09T14:10:15;100510.88;;;19.53;82.50
65880;BME280;52661;51.364;6.054;2022-09-09T14:12:40;100498.09;;;19.37;82.86
65880;BME280;52661;51.364;6.054;2022-09-09T14:15:07;100503.22;;;19.17;83.69
65880;BME280;52661;51.364;6.054;2022-09-09T14:17:33;100495.34;;;18.76;85.69
65880;BME280;52661;51.364;6.054;2022-09-09T14:20:00;100494.81;;;18.46;85.14
65880;BME280;52661;51.364;6.054;2022-09-09T14:22:25;100491.69;;;18.35;86.68
65880;BME280;52661;51.364;6.054;2022-09-09T14:24:51;100496.59;;;18.18;87.44
65880;BME280;52661;51.364;6.054;2022-09-09T14:27:17;100496.84;;;18.11;88.01
65880;BME280;52661;51.364;6.054;2022-09-09T14:29:44;100502.53;;;18.17;88.47
65880;BME280;52661;51.364;6.054;2022-09-09T14:32:10;100494.53;;;18.66;87.23
65880;BME280;52661;51.364;6.054;2022-09-09T14:34:35;100501.19;;;19.08;86.50
65880;BME280;52661;51.364;6.054;2022-09-09T14:37:01;100501.47;;;19.10;84.79
65880;BME280;52661;51.364;6.054;2022-09-09T14:39:27;100503.06;;;18.90;84.86
65880;BME280;52661;51.364;6.054;2022-09-09T14:41:52;100494.75;;;19.02;84.92
65880;BME280;52661;51.364;6.054;2022-09-09T14:44:17;100497.38;;;19.15;84.74
65880;BME280;52661;51.364;6.054;2022-09-09T14:46:43;100492.44;;;19.01;85.53
65880;BME280;52661;51.364;6.054;2022-09-09T14:49:08;100492.56;;;18.97;86.73
65880;BME280;52661;51.364;6.054;2022-09-09T14:51:35;100495.69;;;19.08;86.09
65880;BME280;52661;51.364;6.054;2022-09-09T14:54:01;100492.38;;;19.32;85.78
65880;BME280;52661;51.364;6.054;2022-09-09T14:56:29;100493.25;;;19.50;85.61
65880;BME280;52661;51.364;6.054;2022-09-09T14:58:55;100474.47;;;19.58;85.90